createdAt,value
2019-05-22T00:00:05.710Z,13.40
2019-05-22T00:02:38.781Z,17.87
2019-05-22T00:05:12.011Z,16.27
2019-05-22T00:07:43.275Z,16.03
2019-05-22T00:10:15.432Z,16.23
2019-05-22T00:12:47.408Z,14.93
2019-05-22T00:15:16.743Z,17.00
2019-05-22T00:17:48.966Z,17.30
2019-05-22T00:20:21.530Z,22.27
2019-05-22T00:22:52.680Z,18.87
2019-05-22T00:25:24.967Z,18.30
2019-05-22T00:27:55.005Z,21.60
2019-05-22T00:30:25.864Z,21.90
2019-05-22T00:33:00.019Z,22.57
2019-05-22T00:35:30.532Z,27.90
2019-05-22T00:38:01.418Z,25.77
2019-05-22T00:40:31.652Z,29.37
2019-05-22T00:43:13.531Z,27.07
2019-05-22T00:45:39.637Z,29.12
2019-05-22T00:48:08.901Z,30.35
2019-05-22T00:50:40.588Z,34.20
2019-05-22T00:53:27.546Z,32.37
2019-05-22T00:56:06.147Z,31.90
2019-05-22T00:58:36.686Z,39.80
2019-05-22T01:01:12.591Z,34.38
2019-05-22T01:03:43.029Z,33.77
2019-05-22T01:06:13.380Z,30.40
2019-05-22T01:08:48.183Z,30.63
2019-05-22T01:11:19.875Z,32.00
2019-05-22T01:13:52.955Z,29.15
2019-05-22T01:16:27.070Z,30.62
2019-05-22T01:18:57.848Z,28.73
2019-05-22T01:21:26.719Z,27.85
2019-05-22T01:23:59.243Z,24.40
2019-05-22T01:26:35.643Z,24.18
2019-05-22T01:29:08.386Z,23.87
2019-05-22T01:31:41.560Z,24.18
2019-05-22T01:34:15.478Z,23.63
2019-05-22T01:36:46.786Z,25.57
2019-05-22T01:39:23.080Z,24.30
2019-05-22T01:41:53.764Z,20.60
2019-05-22T01:44:23.264Z,21.27
2019-05-22T01:46:53.880Z,20.93
2019-05-22T01:49:22.785Z,21.93
2019-05-22T01:51:55.007Z,18.23
2019-05-22T01:54:25.989Z,18.07
2019-05-22T01:56:59.186Z,15.60
2019-05-22T01:59:29.245Z,14.53
2019-05-22T02:01:57.827Z,14.50
2019-05-22T02:04:27.833Z,17.17
2019-05-22T02:06:57.029Z,15.65
2019-05-22T02:09:35.446Z,15.23
2019-05-22T02:12:08.703Z,17.37
2019-05-22T02:14:41.727Z,15.77
2019-05-22T02:17:12.437Z,15.68
2019-05-22T02:19:42.213Z,14.70
2019-05-22T02:22:12.992Z,18.53
2019-05-22T02:24:42.441Z,15.00
2019-05-22T02:27:14.373Z,16.10
2019-05-22T02:29:45.465Z,13.13
2019-05-22T02:32:14.276Z,14.83
2019-05-22T02:34:46.989Z,15.07
2019-05-22T02:37:16.696Z,15.93
2019-05-22T02:39:49.086Z,13.97
2019-05-22T02:42:20.677Z,19.43
2019-05-22T02:44:50.400Z,15.47
2019-05-22T02:47:25.243Z,15.67
2019-05-22T02:49:58.186Z,14.37
2019-05-22T02:52:26.900Z,15.07
2019-05-22T02:54:56.318Z,15.60
2019-05-22T02:57:27.624Z,17.57
2019-05-22T02:59:57.315Z,16.50
2019-05-22T03:02:27.644Z,17.53
2019-05-22T03:04:59.603Z,15.50
2019-05-22T03:07:31.882Z,16.97
2019-05-22T03:10:03.251Z,13.72
2019-05-22T03:12:35.155Z,15.33
2019-05-22T03:15:15.270Z,18.20
2019-05-22T03:17:45.327Z,16.50
2019-05-22T03:20:18.621Z,12.97
2019-05-22T03:23:16.579Z,13.55
2019-05-22T03:25:45.064Z,18.43
2019-05-22T03:28:19.134Z,15.80
2019-05-22T03:30:48.819Z,14.50
2019-05-22T03:33:19.045Z,15.33
2019-05-22T03:35:52.709Z,13.50
2019-05-22T03:38:28.974Z,15.73
2019-05-22T03:41:00.322Z,14.40
2019-05-22T03:43:32.271Z,14.28
2019-05-22T03:46:05.444Z,12.90
2019-05-22T03:48:37.797Z,11.63
2019-05-22T03:51:12.614Z,14.47
2019-05-22T03:53:42.203Z,12.87
2019-05-22T03:56:11.219Z,15.03
2019-05-22T03:58:39.973Z,18.77
2019-05-22T04:01:10.381Z,14.50
2019-05-22T04:03:40.362Z,16.80
2019-05-22T04:06:10.761Z,17.10
2019-05-22T04:08:42.558Z,15.08
2019-05-22T04:11:14.196Z,17.67
2019-05-22T04:13:45.289Z,17.33
2019-05-22T04:16:16.499Z,14.47
2019-05-22T04:18:47.222Z,17.57
2019-05-22T04:21:16.327Z,17.43
2019-05-22T04:23:44.795Z,14.50
2019-05-22T04:26:17.375Z,19.07
2019-05-22T04:28:54.114Z,16.03
2019-05-22T04:31:28.062Z,18.03
2019-05-22T04:33:57.134Z,15.23
2019-05-22T04:36:29.861Z,14.85
2019-05-22T04:39:03.217Z,14.50
2019-05-22T04:41:33.916Z,20.40
2019-05-22T04:44:05.255Z,17.47
2019-05-22T04:46:35.986Z,16.63
2019-05-22T04:49:04.892Z,14.97
2019-05-22T04:51:34.804Z,17.30
2019-05-22T04:54:04.839Z,14.63
2019-05-22T04:56:37.717Z,15.17
2019-05-22T04:59:08.030Z,17.93
2019-05-22T05:01:37.990Z,18.43
2019-05-22T05:04:09.244Z,17.70
2019-05-22T05:06:39.350Z,14.50
2019-05-22T05:09:09.949Z,13.13
2019-05-22T05:11:39.737Z,12.10
2019-05-22T05:14:09.358Z,14.07
2019-05-22T05:16:38.143Z,13.97
2019-05-22T05:19:10.277Z,12.07
2019-05-22T05:21:39.404Z,13.77
2019-05-22T05:24:08.382Z,14.23
2019-05-22T05:26:42.254Z,12.53
2019-05-22T05:29:13.982Z,14.45
2019-05-22T05:31:42.987Z,11.40
2019-05-22T05:34:17.070Z,12.07
2019-05-22T05:36:46.832Z,12.37
2019-05-22T05:39:33.536Z,12.67
2019-05-22T05:42:03.607Z,11.87
2019-05-22T05:44:32.522Z,11.27
2019-05-22T05:47:01.684Z,11.33
2019-05-22T05:49:30.862Z,11.23
2019-05-22T05:52:01.038Z,12.63
2019-05-22T05:54:31.917Z,13.88
2019-05-22T05:57:21.301Z,10.30
2019-05-22T05:59:52.491Z,13.90
2019-05-22T06:02:21.689Z,12.63
2019-05-22T06:04:50.872Z,13.17
2019-05-22T06:07:21.131Z,11.23
2019-05-22T06:09:55.363Z,12.07
2019-05-22T06:12:25.235Z,11.57
2019-05-22T06:14:58.689Z,12.33
2019-05-22T06:17:47.191Z,13.50
2019-05-22T06:20:19.367Z,13.93
2019-05-22T06:23:09.037Z,16.53
2019-05-22T06:25:37.697Z,12.33
2019-05-22T06:28:07.137Z,12.75
2019-05-22T06:30:42.296Z,16.40
2019-05-22T06:33:18.412Z,14.77
2019-05-22T06:35:48.564Z,10.43
2019-05-22T06:38:23.317Z,8.97
2019-05-22T06:40:52.152Z,11.37
2019-05-22T06:43:27.750Z,13.23
2019-05-22T06:45:58.360Z,13.97
2019-05-22T06:48:28.379Z,12.43
2019-05-22T06:50:57.615Z,12.37
2019-05-22T06:53:27.919Z,9.00
2019-05-22T06:56:01.075Z,13.50
2019-05-22T06:58:30.013Z,9.53
2019-05-22T07:01:02.566Z,7.73
2019-05-22T07:03:33.012Z,10.80
2019-05-22T07:06:03.844Z,11.13
2019-05-22T07:08:34.061Z,9.35
2019-05-22T07:11:07.935Z,10.63
2019-05-22T07:13:37.486Z,9.15
2019-05-22T07:16:07.998Z,12.63
2019-05-22T07:18:38.320Z,9.73
2019-05-22T07:21:07.952Z,10.73
2019-05-22T07:23:39.170Z,9.93
2019-05-22T07:26:08.377Z,11.13
2019-05-22T07:28:38.700Z,7.93
2019-05-22T07:31:08.759Z,13.63
2019-05-22T07:33:38.842Z,10.80
2019-05-22T07:36:11.205Z,12.07
2019-05-22T07:38:39.458Z,10.57
2019-05-22T07:41:08.353Z,19.87
2019-05-22T07:43:41.730Z,11.20
2019-05-22T07:46:13.756Z,10.30
2019-05-22T07:48:42.457Z,8.93
2019-05-22T07:51:14.015Z,10.93
2019-05-22T07:53:42.976Z,11.27
2019-05-22T07:56:12.875Z,11.10
2019-05-22T07:58:46.362Z,11.03
2019-05-22T08:01:17.885Z,9.23
2019-05-22T08:03:47.787Z,10.40
2019-05-22T08:06:17.275Z,9.13
2019-05-22T08:08:48.963Z,10.40
2019-05-22T08:11:20.006Z,9.10
2019-05-22T08:13:48.745Z,10.23
2019-05-22T08:16:18.212Z,8.87
2019-05-22T08:18:47.117Z,10.43
2019-05-22T08:21:19.030Z,8.43
2019-05-22T08:23:48.329Z,9.30
2019-05-22T08:26:18.683Z,9.88
2019-05-22T08:29:06.642Z,9.20
2019-05-22T08:31:37.391Z,9.50
2019-05-22T08:34:07.028Z,10.93
2019-05-22T08:36:38.637Z,9.03
2019-05-22T08:39:09.493Z,9.70
2019-05-22T08:41:40.514Z,11.77
2019-05-22T08:44:16.823Z,11.27
2019-05-22T08:46:43.774Z,11.87
2019-05-22T08:49:12.330Z,9.58
2019-05-22T08:51:41.063Z,8.78
2019-05-22T08:54:13.203Z,11.38
2019-05-22T08:56:46.102Z,9.13
2019-05-22T08:59:19.895Z,9.53
2019-05-22T09:01:48.708Z,10.63
2019-05-22T09:04:18.913Z,8.73
2019-05-22T09:06:47.426Z,8.90
2019-05-22T09:09:17.454Z,10.45
2019-05-22T09:11:46.009Z,9.27
2019-05-22T09:14:14.563Z,8.20
2019-05-22T09:16:45.976Z,8.78
2019-05-22T09:19:15.438Z,9.10
2019-05-22T09:21:46.402Z,9.40
2019-05-22T09:24:17.603Z,8.67
2019-05-22T09:26:50.125Z,9.23
2019-05-22T09:29:19.004Z,8.47
2019-05-22T09:31:48.052Z,9.57
2019-05-22T09:34:18.052Z,8.30
2019-05-22T09:36:48.265Z,9.77
2019-05-22T09:39:19.970Z,8.60
2019-05-22T09:41:50.256Z,10.73
2019-05-22T09:44:20.232Z,8.40
2019-05-22T09:46:49.637Z,8.18
2019-05-22T09:49:23.295Z,8.63
2019-05-22T09:51:52.913Z,7.97
2019-05-22T09:54:22.171Z,8.97
2019-05-22T09:56:52.485Z,8.67
2019-05-22T09:59:20.960Z,8.47
2019-05-22T10:01:50.760Z,7.77
2019-05-22T10:04:27.982Z,9.20
2019-05-22T10:06:57.955Z,9.33
2019-05-22T10:09:28.165Z,8.37
2019-05-22T10:12:04.229Z,6.93
2019-05-22T10:14:36.174Z,6.70
2019-05-22T10:17:05.954Z,8.73
2019-05-22T10:19:35.219Z,7.97
2019-05-22T10:22:07.923Z,7.07
2019-05-22T10:24:37.770Z,9.30
2019-05-22T10:27:09.957Z,9.40
2019-05-22T10:29:39.066Z,9.90
2019-05-22T10:32:12.842Z,9.00
2019-05-22T10:34:43.359Z,8.90
2019-05-22T10:37:15.641Z,10.03
2019-05-22T10:39:44.776Z,8.35
2019-05-22T10:42:13.493Z,7.33
2019-05-22T10:44:43.596Z,8.60
2019-05-22T10:47:13.939Z,7.93
2019-05-22T10:49:42.578Z,8.07
2019-05-22T10:52:15.120Z,7.67
2019-05-22T10:54:43.756Z,9.90
2019-05-22T10:57:16.947Z,9.07
2019-05-22T10:59:45.667Z,11.15
2019-05-22T11:02:17.753Z,9.67
2019-05-22T11:04:49.615Z,9.50
2019-05-22T11:07:18.113Z,9.55
2019-05-22T11:09:50.111Z,9.77
2019-05-22T11:12:19.278Z,10.87
2019-05-22T11:14:50.852Z,9.70
2019-05-22T11:17:24.258Z,11.83
2019-05-22T11:19:56.321Z,9.83
2019-05-22T11:22:26.265Z,9.97
2019-05-22T11:24:54.989Z,11.80
2019-05-22T11:27:24.095Z,10.43
2019-05-22T11:29:52.743Z,10.30
2019-05-22T11:32:24.564Z,12.47
2019-05-22T11:34:56.305Z,10.93
2019-05-22T11:37:25.133Z,10.43
2019-05-22T11:39:55.144Z,11.70
2019-05-22T11:42:27.711Z,10.53
2019-05-22T11:44:56.778Z,10.13
2019-05-22T11:47:27.038Z,15.03
2019-05-22T11:49:55.940Z,11.00
2019-05-22T11:52:27.305Z,10.03
2019-05-22T11:54:56.085Z,11.73
2019-05-22T11:57:26.948Z,10.43
2019-05-22T11:59:55.593Z,10.93
2019-05-22T12:02:28.420Z,11.03
2019-05-22T12:04:59.302Z,11.73
2019-05-22T12:07:28.231Z,12.27
2019-05-22T12:09:59.477Z,11.60
2019-05-22T12:12:30.333Z,12.60
2019-05-22T12:14:58.847Z,10.73
2019-05-22T12:17:38.162Z,13.17
2019-05-22T12:20:00.707Z,11.40
2019-05-22T12:22:31.306Z,11.73
2019-05-22T12:25:01.784Z,11.80
2019-05-22T12:27:31.043Z,12.20
2019-05-22T12:29:59.582Z,12.33
2019-05-22T12:32:32.032Z,13.47
2019-05-22T12:35:03.457Z,11.10
2019-05-22T12:37:33.573Z,10.47
2019-05-22T12:40:07.853Z,14.63
2019-05-22T12:42:41.961Z,10.90
2019-05-22T12:45:15.320Z,13.10
2019-05-22T12:47:44.368Z,14.17
2019-05-22T12:50:17.172Z,12.40
2019-05-22T12:52:48.126Z,13.00
2019-05-22T12:55:18.385Z,14.10
2019-05-22T12:57:49.453Z,12.17
2019-05-22T13:00:22.338Z,12.97
2019-05-22T13:02:52.356Z,14.37
2019-05-22T13:05:26.293Z,14.33
2019-05-22T13:07:55.988Z,14.17
2019-05-22T13:10:26.936Z,13.28
2019-05-22T13:12:59.663Z,12.07
2019-05-22T13:15:28.447Z,11.77
2019-05-22T13:17:59.453Z,11.97
2019-05-22T13:20:42.433Z,13.97
2019-05-22T13:23:06.260Z,13.03
2019-05-22T13:25:36.412Z,12.33
2019-05-22T13:28:05.554Z,13.05
2019-05-22T13:30:36.374Z,17.50
2019-05-22T13:33:11.191Z,14.83
2019-05-22T13:35:40.508Z,10.23
2019-05-22T13:38:09.650Z,13.93
2019-05-22T13:40:39.873Z,12.18
2019-05-22T13:43:10.369Z,15.57
2019-05-22T13:45:39.582Z,14.37
2019-05-22T13:48:09.258Z,12.90
2019-05-22T13:50:38.444Z,13.00
2019-05-22T13:53:11.528Z,13.53
2019-05-22T13:55:41.326Z,12.80
2019-05-22T13:58:13.159Z,14.87
2019-05-22T14:00:42.274Z,12.37
2019-05-22T14:03:12.964Z,13.87
2019-05-22T14:05:49.119Z,11.43
2019-05-22T14:08:19.894Z,12.23
2019-05-22T14:10:50.329Z,13.00
2019-05-22T14:13:22.167Z,11.00
2019-05-22T14:15:56.523Z,11.50
2019-05-22T14:18:22.988Z,13.10
2019-05-22T14:20:55.060Z,14.27
2019-05-22T14:23:24.723Z,12.20
2019-05-22T14:25:53.833Z,13.70
2019-05-22T14:28:24.237Z,11.63
2019-05-22T14:30:53.379Z,11.48
2019-05-22T14:33:22.395Z,13.67
2019-05-22T14:35:52.677Z,11.67
2019-05-22T14:38:28.295Z,12.58
2019-05-22T14:40:59.202Z,12.03
2019-05-22T14:43:29.166Z,11.65
2019-05-22T14:45:59.446Z,9.73
2019-05-22T14:48:29.276Z,13.57
2019-05-22T14:51:00.732Z,7.87
2019-05-22T14:53:29.843Z,7.57
2019-05-22T14:56:01.032Z,8.87
2019-05-22T14:58:30.560Z,8.00
2019-05-22T15:01:00.286Z,8.33
2019-05-22T15:03:34.058Z,8.00
2019-05-22T15:06:03.019Z,10.17
2019-05-22T15:08:34.534Z,8.63
2019-05-22T15:11:03.085Z,7.43
2019-05-22T15:13:33.686Z,8.33
2019-05-22T15:16:02.289Z,9.15
2019-05-22T15:18:33.714Z,8.03
2019-05-22T15:21:06.832Z,8.73
2019-05-22T15:23:36.368Z,6.87
2019-05-22T15:26:07.887Z,8.07
2019-05-22T15:28:38.213Z,5.87
2019-05-22T15:31:07.632Z,7.77
2019-05-22T15:33:36.421Z,7.42
2019-05-22T15:36:08.109Z,9.53
2019-05-22T15:38:42.300Z,9.05
2019-05-22T15:41:11.533Z,9.03
2019-05-22T15:43:44.352Z,8.03
2019-05-22T15:46:16.738Z,8.90
2019-05-22T15:48:48.480Z,9.37
2019-05-22T15:51:20.887Z,10.97
2019-05-22T15:53:50.339Z,10.50
2019-05-22T15:56:21.862Z,8.80
2019-05-22T15:58:54.181Z,11.33
2019-05-22T16:01:25.498Z,8.78
2019-05-22T16:03:58.730Z,14.57
2019-05-22T16:06:29.465Z,12.60
2019-05-22T16:09:03.081Z,16.37
2019-05-22T16:11:35.219Z,15.48
2019-05-22T16:14:05.944Z,15.30
2019-05-22T16:16:36.202Z,16.83
2019-05-22T16:19:07.389Z,16.73
2019-05-22T16:21:40.164Z,18.40
2019-05-22T16:24:12.543Z,16.00
2019-05-22T16:26:42.399Z,16.17
2019-05-22T16:29:11.902Z,18.65
2019-05-22T16:31:43.497Z,17.37
2019-05-22T16:34:14.168Z,13.50
2019-05-22T16:36:46.240Z,16.50
2019-05-22T16:39:18.349Z,14.13
2019-05-22T16:41:48.245Z,17.03
2019-05-22T16:44:20.162Z,15.13
2019-05-22T16:46:49.891Z,14.10
2019-05-22T16:49:21.803Z,13.07
2019-05-22T16:51:51.133Z,13.78
2019-05-22T16:54:21.347Z,14.13
2019-05-22T16:56:50.284Z,14.27
2019-05-22T16:59:20.551Z,14.13
2019-05-22T17:02:00.046Z,12.53
2019-05-22T17:04:21.122Z,16.17
2019-05-22T17:06:51.671Z,14.57
2019-05-22T17:09:22.909Z,18.80
2019-05-22T17:11:52.447Z,11.27
2019-05-22T17:14:21.521Z,13.10
2019-05-22T17:16:51.739Z,15.97
2019-05-22T17:19:27.244Z,9.20
2019-05-22T17:21:51.487Z,13.63
2019-05-22T17:24:21.304Z,14.13
2019-05-22T17:26:50.037Z,10.97
2019-05-22T17:29:18.553Z,12.30
2019-05-22T17:31:48.378Z,10.23
2019-05-22T17:34:34.150Z,11.90
2019-05-22T17:37:13.195Z,10.57
2019-05-22T17:39:45.737Z,9.43
2019-05-22T17:42:18.313Z,12.73
2019-05-22T17:44:49.547Z,10.20
2019-05-22T17:47:22.230Z,12.13
2019-05-22T17:49:51.891Z,12.88
2019-05-22T17:52:24.293Z,13.37
2019-05-22T17:54:56.461Z,11.70
2019-05-22T17:57:25.361Z,15.33
2019-05-22T17:59:56.299Z,14.13
2019-05-22T18:02:30.028Z,18.23
2019-05-22T18:04:59.195Z,17.17
2019-05-22T18:07:30.302Z,19.05
2019-05-22T18:09:59.189Z,15.93
2019-05-22T18:12:31.786Z,14.10
2019-05-22T18:15:01.780Z,16.90
2019-05-22T18:17:30.349Z,15.87
2019-05-22T18:19:59.114Z,13.93
2019-05-22T18:22:30.030Z,11.73
2019-05-22T18:25:02.367Z,14.93
2019-05-22T18:27:32.141Z,19.17
2019-05-22T18:30:00.654Z,14.50
2019-05-22T18:32:31.519Z,12.73
2019-05-22T18:35:05.968Z,16.47
2019-05-22T18:37:34.662Z,13.63
2019-05-22T18:40:05.808Z,13.90
2019-05-22T18:42:36.919Z,16.90
2019-05-22T18:45:09.803Z,15.20
2019-05-22T18:47:38.801Z,17.53
2019-05-22T18:50:09.288Z,15.30
2019-05-22T18:52:42.224Z,16.63
2019-05-22T18:55:11.132Z,15.33
2019-05-22T18:57:43.397Z,16.33
2019-05-22T19:00:12.515Z,17.23
2019-05-22T19:02:43.212Z,17.97
2019-05-22T19:05:14.481Z,15.40
2019-05-22T19:07:46.033Z,16.62
2019-05-22T19:10:16.120Z,19.73
2019-05-22T19:12:46.067Z,16.23
2019-05-22T19:15:19.805Z,14.60
2019-05-22T19:17:52.540Z,15.17
2019-05-22T19:20:22.318Z,13.83
2019-05-22T19:22:59.858Z,15.20
2019-05-22T19:25:24.095Z,13.67
2019-05-22T19:27:52.893Z,13.65
2019-05-22T19:30:25.272Z,15.45
2019-05-22T19:32:55.369Z,12.90
2019-05-22T19:35:25.860Z,10.97
2019-05-22T19:37:58.447Z,11.83
2019-05-22T19:40:28.635Z,13.67
2019-05-22T19:43:00.095Z,14.57
2019-05-22T19:45:30.900Z,14.93
2019-05-22T19:47:59.594Z,13.72
2019-05-22T19:50:29.080Z,14.43
2019-05-22T19:53:15.808Z,15.07
2019-05-22T19:55:31.329Z,13.27
2019-05-22T19:58:00.909Z,11.93
2019-05-22T20:00:31.955Z,14.27
2019-05-22T20:03:01.837Z,16.90
2019-05-22T20:05:33.913Z,12.77
2019-05-22T20:08:06.302Z,11.27
2019-05-22T20:10:35.117Z,13.43
2019-05-22T20:13:06.912Z,14.17
2019-05-22T20:15:37.006Z,13.23
2019-05-22T20:18:06.034Z,15.72
2019-05-22T20:20:37.850Z,12.43
2019-05-22T20:23:06.686Z,13.22
2019-05-22T20:25:37.026Z,12.90
2019-05-22T20:28:07.809Z,11.60
2019-05-22T20:30:37.721Z,10.48
2019-05-22T20:33:06.683Z,13.93
2019-05-22T20:35:38.250Z,11.67
2019-05-22T20:38:07.388Z,14.73
2019-05-22T20:40:43.283Z,11.63
2019-05-22T20:43:13.527Z,13.73
2019-05-22T20:45:45.611Z,12.70
2019-05-22T20:48:17.628Z,13.48
2019-05-22T20:50:48.809Z,13.13
2019-05-22T20:53:19.303Z,13.50
2019-05-22T20:55:49.287Z,11.83
2019-05-22T20:58:19.428Z,12.07
2019-05-22T21:00:49.817Z,13.80
2019-05-22T21:03:22.908Z,12.63
2019-05-22T21:05:55.064Z,16.10
2019-05-22T21:08:25.442Z,13.10
2019-05-22T21:10:57.500Z,17.67
2019-05-22T21:13:28.771Z,14.40
2019-05-22T21:15:58.489Z,15.30
2019-05-22T21:18:30.774Z,13.40
2019-05-22T21:21:01.725Z,13.83
2019-05-22T21:23:30.488Z,15.67
2019-05-22T21:25:59.444Z,12.68
2019-05-22T21:28:29.471Z,18.23
2019-05-22T21:30:59.060Z,14.47
2019-05-22T21:33:28.754Z,15.17
2019-05-22T21:36:00.237Z,15.40
2019-05-22T21:38:31.787Z,16.47
2019-05-22T21:41:02.426Z,12.45
2019-05-22T21:43:32.564Z,15.63
2019-05-22T21:46:01.064Z,19.70
2019-05-22T21:48:29.862Z,14.67
2019-05-22T21:50:58.855Z,15.90
2019-05-22T21:53:27.895Z,17.57
2019-05-22T21:56:04.663Z,14.40
2019-05-22T21:58:31.865Z,17.30
2019-05-22T22:01:04.541Z,15.40
2019-05-22T22:03:47.180Z,13.65
2019-05-22T22:06:17.150Z,18.23
2019-05-22T22:08:48.255Z,15.90
2019-05-22T22:11:20.488Z,15.10
2019-05-22T22:13:50.607Z,16.45
2019-05-22T22:16:21.406Z,15.72
2019-05-22T22:18:49.946Z,18.03
2019-05-22T22:21:20.249Z,15.87
2019-05-22T22:23:48.850Z,15.00
2019-05-22T22:26:26.040Z,17.83
2019-05-22T22:28:49.449Z,15.30
2019-05-22T22:34:00.299Z,19.97
2019-05-22T22:36:29.769Z,19.05
2019-05-22T22:38:58.790Z,18.40
2019-05-22T22:41:28.812Z,19.00
2019-05-22T22:44:03.164Z,17.00
2019-05-22T22:46:38.997Z,16.50
2019-05-22T22:49:13.510Z,21.50
2019-05-22T22:51:43.203Z,14.78
2019-05-22T22:54:12.879Z,17.03
2019-05-22T22:56:43.100Z,19.07
2019-05-22T22:59:12.863Z,18.43
2019-05-22T23:01:43.832Z,18.27
2019-05-22T23:04:13.643Z,17.83
2019-05-22T23:06:45.528Z,16.90
2019-05-22T23:09:16.538Z,18.07
2019-05-22T23:11:48.606Z,18.03
2019-05-22T23:14:23.020Z,20.63
2019-05-22T23:16:55.019Z,22.13
2019-05-22T23:19:33.796Z,19.17
2019-05-22T23:22:02.905Z,20.43
2019-05-22T23:24:33.874Z,17.50
2019-05-22T23:27:06.821Z,20.53
2019-05-22T23:29:38.102Z,16.37
2019-05-22T23:32:09.409Z,17.53
2019-05-22T23:34:39.939Z,20.50
2019-05-22T23:37:10.758Z,20.77
2019-05-22T23:39:41.875Z,20.03
2019-05-22T23:42:16.083Z,18.80
2019-05-22T23:44:47.033Z,21.10
2019-05-22T23:47:16.855Z,20.10
2019-05-22T23:49:47.455Z,24.00
2019-05-22T23:52:17.407Z,25.10
2019-05-22T23:54:48.757Z,25.65
2019-05-22T23:57:20.572Z,24.60
2019-05-22T23:59:53.058Z,29.60
